Del Rio/Laughlin AFB, Texas
Current Conditions -  °F | °C
As of 7:58 PM on Tuesday 21 Oct 2014 (Local Time) from KDLF Reporting Station
Overcast Overcast  
Wind Chill: 74°   Ceiling: 6000
Heat Index: 74°   Visibility: 10mi
Dew Point: 66°   Wind: 12mph
Humidity: 78%   Direction: 300°WNW
Pressure: 29.99"   Gusts: NA
Location:  29.36°N, 100.78°W
Report Text: KDLF 220058Z AUTO 30010KT 10SM OVC060 23/19 A2999 RMK AO2 SLP146 T02310190 $
Loading
Personal Weather Stations






























Interactive Weather Map
Tropical Storm Tracking
New forecast layout! Learn more

10-Day Weather Forecast

Advertisements
Track Severe Weather on mobile